Time,TemperatureF,DewpointF,PressureIn,WindDirection,WindDirectionDegrees,WindSpeedMPH,WindSpeedGustMPH,Humidity,HourlyPrecipIn,Conditions,Clouds,dailyrainin,SoftwareType,DateUTC
2013-06-14 00:00:00,74.7,68.1,30.03,SSE,166,0.0,4.0,80,0.00,,,0.00,VWS V14.01,2013-06-14 05:00:00,
2013-06-14 00:01:00,74.6,68.0,30.03,SSE,153,0.0,0.0,80,0.00,,,0.00,VWS V14.01,2013-06-14 05:01:00,
2013-06-14 00:06:00,74.6,68.0,30.03,ENE,71,4.5,4.5,80,0.00,,,0.00,VWS V14.01,2013-06-14 05:06:00,
2013-06-14 00:11:00,74.6,68.0,30.03,SE,141,1.5,3.0,80,0.00,,,0.00,VWS V14.01,2013-06-14 05:11:00,
2013-06-14 00:16:00,74.5,67.9,30.03,SE,145,1.5,3.0,80,0.00,,,0.00,VWS V14.01,2013-06-14 05:16:00,
2013-06-14 00:21:00,74.4,67.8,30.03,East,97,0.0,4.0,80,0.00,,,0.00,VWS V14.01,2013-06-14 05:21:00,
2013-06-14 00:26:00,74.4,67.8,30.03,SE,143,0.0,4.0,80,0.00,,,0.00,VWS V14.01,2013-06-14 05:26:00,
2013-06-14 00:31:00,74.3,68.1,30.04,East,80,1.5,4.0,81,0.00,,,0.00,VWS V14.01,2013-06-14 05:31:00,
2013-06-14 00:36:00,74.3,68.1,30.04,East,79,0.0,4.0,81,0.00,,,0.00,VWS V14.01,2013-06-14 05:36:00,
2013-06-14 00:41:00,74.2,68.0,30.03,ENE,77,0.0,4.0,81,0.00,,,0.00,VWS V14.01,2013-06-14 05:41:00,
2013-06-14 00:46:00,74.1,67.9,30.03,East,79,1.5,4.0,81,0.00,,,0.00,VWS V14.01,2013-06-14 05:46:00,
2013-06-14 00:51:00,73.9,68.1,30.03,ENE,73,0.0,4.0,82,0.00,,,0.00,VWS V14.01,2013-06-14 05:51:00,
2013-06-14 00:56:00,73.9,68.1,30.03,East,84,0.0,4.0,82,0.00,,,0.00,VWS V14.01,2013-06-14 05:56:00,
2013-06-14 01:00:00,74.7,68.1,30.03,SSE,166,0.0,4.0,80,0.00,,,0.00,VWS V15.00,2013-06-14 06:00:00,
2013-06-14 01:01:00,73.7,67.9,30.03,East,84,0.0,4.0,82,0.00,,,0.00,VWS V14.01,2013-06-14 06:01:00,
2013-06-14 01:06:00,73.5,67.7,30.03,East,84,0.0,4.0,82,0.00,,,0.00,VWS V14.01,2013-06-14 06:06:00,
2013-06-14 01:11:00,73.3,67.5,30.02,East,85,0.0,4.0,82,0.00,,,0.00,VWS V14.01,2013-06-14 06:11:00,
2013-06-14 01:16:00,73.1,67.6,30.02,ESE,113,0.0,4.0,83,0.00,,,0.00,VWS V14.01,2013-06-14 06:16:00,
2013-06-14 01:21:00,73.0,67.5,30.02,SSE,168,0.0,4.0,83,0.00,,,0.00,VWS V14.01,2013-06-14 06:21:00,
2013-06-14 01:26:00,73.0,67.5,30.02,SSE,166,0.0,4.0,83,0.00,,,0.00,VWS V14.01,2013-06-14 06:26:00,
2013-06-14 01:31:00,73.1,67.6,30.02,SE,138,0.0,4.0,83,0.00,,,0.00,VWS V14.01,2013-06-14 06:31:00,
2013-06-14 01:36:00,73.1,67.6,30.02,SW,215,0.0,4.0,83,0.00,,,0.00,VWS V14.01,2013-06-14 06:36:00,
2013-06-14 01:41:00,73.1,67.6,30.02,South,180,1.5,4.0,83,0.00,,,0.00,VWS V14.01,2013-06-14 06:41:00,
2013-06-14 01:46:00,73.2,67.7,30.02,SSE,153,0.0,4.0,83,0.00,,,0.00,VWS V14.01,2013-06-14 06:46:00,
2013-06-14 01:51:00,73.1,67.6,30.02,SSE,152,0.0,4.0,83,0.00,,,0.00,VWS V14.01,2013-06-14 06:51:00,
2013-06-14 01:56:00,73.1,67.3,30.02,SE,146,0.0,4.0,82,0.00,,,0.00,VWS V14.01,2013-06-14 06:56:00,
2013-06-14 02:00:00,73.1,67.6,30.02,SSE,160,0.0,4.0,83,0.00,,,0.00,VWS V14.01,2013-06-14 07:00:00,
2013-06-14 02:01:00,73.1,67.6,30.02,SSE,160,0.0,0.0,83,0.00,,,0.00,VWS V14.01,2013-06-14 07:01:00,
2013-06-14 02:06:00,73.2,67.4,30.02,SE,142,0.0,4.0,82,0.00,,,0.00,VWS V14.01,2013-06-14 07:06:00,
2013-06-14 02:11:00,73.2,67.4,30.02,SSE,163,0.0,4.0,82,0.00,,,0.00,VWS V14.01,2013-06-14 07:11:00,
2013-06-14 02:16:00,73.2,67.4,30.02,SSW,195,1.5,4.0,82,0.00,,,0.00,VWS V14.01,2013-06-14 07:16:00,
2013-06-14 02:21:00,73.2,67.4,30.01,South,190,1.5,4.0,82,0.00,,,0.00,VWS V14.01,2013-06-14 07:21:00,
2013-06-14 02:26:00,73.2,67.4,30.01,SSE,162,0.0,4.0,82,0.00,,,0.00,VWS V14.01,2013-06-14 07:26:00,
2013-06-14 02:31:00,73.0,67.5,30.01,SE,145,0.0,4.0,83,0.00,,,0.00,VWS V14.01,2013-06-14 07:31:00,
2013-06-14 02:36:00,72.9,67.4,30.01,SSE,151,0.0,4.0,83,0.00,,,0.00,VWS V14.01,2013-06-14 07:36:00,
2013-06-14 02:41:00,72.8,67.3,30.01,SE,136,0.0,4.0,83,0.00,,,0.00,VWS V14.01,2013-06-14 07:41:00,
2013-06-14 02:46:00,72.7,67.2,30.01,SE,136,0.0,4.0,83,0.00,,,0.00,VWS V14.01,2013-06-14 07:46:00,
2013-06-14 02:51:00,72.3,67.2,30.01,SE,141,0.0,4.0,84,0.00,,,0.00,VWS V14.01,2013-06-14 07:51:00,
2013-06-14 02:56:00,72.0,66.9,30.01,SE,141,0.0,4.0,84,0.00,,,0.00,VWS V14.01,2013-06-14 07:56:00,
2013-06-14 03:00:00,73.1,67.6,30.02,SSE,160,0.0,4.0,83,0.00,,,0.00,VWS V15.00,2013-06-14 08:00:00,
2013-06-14 03:01:00,71.6,67.2,30.01,SE,141,0.0,4.0,86,0.00,,,0.00,VWS V14.01,2013-06-14 08:01:00,
2013-06-14 03:06:00,71.3,66.9,30.01,NE,49,0.0,4.0,86,0.00,,,0.00,VWS V14.01,2013-06-14 08:06:00,
2013-06-14 03:11:00,71.1,67.0,30.02,ENE,61,0.0,4.0,87,0.00,,,0.00,VWS V14.01,2013-06-14 08:11:00,
2013-06-14 03:16:00,71.0,66.9,30.02,ENE,72,0.0,4.0,87,0.00,,,0.00,VWS V14.01,2013-06-14 08:16:00,
2013-06-14 03:21:00,71.1,67.4,30.02,ENE,72,0.0,4.0,88,0.00,,,0.00,VWS V14.01,2013-06-14 08:21:00,
2013-06-14 03:26:00,71.3,67.2,30.02,NE,55,1.5,4.0,87,0.00,,,0.00,VWS V14.01,2013-06-14 08:26:00,
2013-06-14 03:31:00,71.4,67.3,30.02,ENE,60,3.0,4.0,87,0.00,,,0.00,VWS V14.01,2013-06-14 08:31:00,
2013-06-14 03:36:00,71.4,67.3,30.02,ENE,68,6.0,6.0,87,0.00,,,0.00,VWS V14.01,2013-06-14 08:36:00,
2013-06-14 03:41:00,71.4,67.7,30.02,NE,56,1.5,5.0,88,0.00,,,0.00,VWS V14.01,2013-06-14 08:41:00,
2013-06-14 03:46:00,71.5,67.8,30.02,ENE,75,3.0,5.0,88,0.00,,,0.00,VWS V14.01,2013-06-14 08:46:00,
2013-06-14 03:51:00,71.6,67.9,30.02,ENE,75,1.5,5.0,88,0.00,,,0.00,VWS V14.01,2013-06-14 08:51:00,
2013-06-14 03:56:00,71.6,67.5,30.02,SSW,205,0.0,5.0,87,0.00,,,0.00,VWS V14.01,2013-06-14 08:56:00,
2013-06-14 04:00:00,71.6,67.5,30.02,SSE,152,1.5,5.0,87,0.00,,,0.00,VWS V14.01,2013-06-14 09:00:00,
2013-06-14 04:01:00,71.6,67.5,30.02,East,96,1.5,1.5,87,0.00,,,0.00,VWS V14.01,2013-06-14 09:01:00,
2013-06-14 04:06:00,71.5,67.8,30.02,East,87,1.5,3.0,88,0.00,,,0.00,VWS V14.01,2013-06-14 09:06:00,
2013-06-14 04:11:00,71.4,67.7,30.02,East,84,1.5,3.0,88,0.00,,,0.00,VWS V14.01,2013-06-14 09:11:00,
2013-06-14 04:16:00,71.3,67.6,30.02,East,80,1.5,3.0,88,0.00,,,0.00,VWS V14.01,2013-06-14 09:16:00,
2013-06-14 04:21:00,71.3,67.6,30.03,ENE,70,1.5,3.0,88,0.00,,,0.00,VWS V14.01,2013-06-14 09:21:00,
2013-06-14 04:26:00,71.2,67.5,30.03,SE,141,0.0,3.0,88,0.00,,,0.00,VWS V14.01,2013-06-14 09:26:00,
2013-06-14 04:31:00,71.3,67.2,30.03,SE,125,0.0,3.0,87,0.00,,,0.00,VWS V14.01,2013-06-14 09:31:00,
2013-06-14 04:36:00,71.4,67.3,30.03,South,172,4.5,4.5,87,0.00,,,0.00,VWS V14.01,2013-06-14 09:36:00,
2013-06-14 04:41:00,71.6,67.5,30.03,ENE,78,0.0,3.0,87,0.00,,,0.00,VWS V14.01,2013-06-14 09:41:00,
2013-06-14 04:46:00,71.7,67.6,30.03,East,89,3.0,4.0,87,0.00,,,0.00,VWS V14.01,2013-06-14 09:46:00,
2013-06-14 04:51:00,71.8,67.4,30.02,East,82,0.0,4.0,86,0.00,,,0.00,VWS V14.01,2013-06-14 09:51:00,
2013-06-14 04:56:00,71.8,67.4,30.02,SE,143,1.5,4.0,86,0.00,,,0.00,VWS V14.01,2013-06-14 09:56:00,
2013-06-14 05:00:00,71.6,67.5,30.02,SSE,152,1.5,5.0,87,0.00,,,0.00,VWS V15.00,2013-06-14 10:00:00,
2013-06-14 05:01:00,71.7,67.3,30.03,SE,131,1.5,4.0,86,0.00,,,0.00,VWS V14.01,2013-06-14 10:01:00,
2013-06-14 05:06:00,71.7,67.3,30.03,ESE,111,0.0,4.0,86,0.00,,,0.00,VWS V14.01,2013-06-14 10:06:00,
2013-06-14 05:11:00,71.5,67.1,30.03,East,87,0.0,4.0,86,0.00,,,0.00,VWS V14.01,2013-06-14 10:11:00,
2013-06-14 05:16:00,71.3,66.9,30.03,ENE,67,0.0,4.0,86,0.00,,,0.00,VWS V14.01,2013-06-14 10:16:00,
2013-06-14 05:21:00,71.2,66.8,30.03,ESE,112,0.0,4.0,86,0.00,,,0.00,VWS V14.01,2013-06-14 10:21:00,
2013-06-14 05:26:00,71.0,66.9,30.03,SE,134,0.0,4.0,87,0.00,,,0.00,VWS V14.01,2013-06-14 10:26:00,
2013-06-14 05:31:00,70.9,66.8,30.03,ENE,77,0.0,4.0,87,0.00,,,0.00,VWS V14.01,2013-06-14 10:31:00,
2013-06-14 05:36:00,70.8,66.7,30.04,East,101,1.5,4.0,87,0.00,,,0.00,VWS V14.01,2013-06-14 10:36:00,
2013-06-14 05:41:00,70.7,66.7,30.04,East,80,1.5,4.0,87,0.00,,,0.00,VWS V14.01,2013-06-14 10:41:00,
2013-06-14 05:46:00,70.5,66.8,30.04,SE,132,0.0,4.0,88,0.00,,,0.00,VWS V14.01,2013-06-14 10:46:00,
2013-06-14 05:51:00,70.4,66.7,30.04,SE,129,1.5,4.0,88,0.00,,,0.00,VWS V14.01,2013-06-14 10:51:00,
2013-06-14 05:56:00,70.3,66.6,30.04,ESE,105,0.0,4.0,88,0.00,,,0.00,VWS V14.01,2013-06-14 10:56:00,
2013-06-14 06:00:00,70.3,66.6,30.04,SSE,152,0.0,4.0,88,0.00,,,0.00,VWS V14.01,2013-06-14 11:00:00,
2013-06-14 06:01:00,70.2,66.5,30.04,ESE,107,0.0,2.0,88,0.00,,,0.00,VWS V14.01,2013-06-14 11:01:00,
2013-06-14 06:06:00,70.1,66.4,30.04,SE,134,1.5,2.0,88,0.00,,,0.00,VWS V14.01,2013-06-14 11:06:00,
2013-06-14 06:11:00,70.1,66.7,30.04,East,92,3.0,3.0,89,0.00,,,0.00,VWS V14.01,2013-06-14 11:11:00,
2013-06-14 06:16:00,70.1,66.7,30.05,SE,136,0.0,2.0,89,0.00,,,0.00,VWS V14.01,2013-06-14 11:16:00,
2013-06-14 06:21:00,70.1,66.7,30.04,East,84,1.5,2.0,89,0.00,,,0.00,VWS V14.01,2013-06-14 11:21:00,
2013-06-14 06:26:00,70.2,66.8,30.05,East,80,0.0,2.0,89,0.00,,,0.00,VWS V14.01,2013-06-14 11:26:00,
2013-06-14 06:31:00,70.4,67.0,30.05,East,80,0.0,2.0,89,0.00,,,0.00,VWS V14.01,2013-06-14 11:31:00,
2013-06-14 06:36:00,70.7,67.0,30.04,SE,138,0.0,2.0,88,0.00,,,0.00,VWS V14.01,2013-06-14 11:36:00,
2013-06-14 06:41:00,71.1,67.0,30.04,ESE,119,0.0,2.0,87,0.00,,,0.00,VWS V14.01,2013-06-14 11:41:00,
2013-06-14 06:46:00,71.4,67.0,30.04,East,84,3.0,3.0,86,0.00,,,0.00,VWS V14.01,2013-06-14 11:46:00,
2013-06-14 06:51:00,71.9,67.5,30.05,SSE,165,0.0,2.0,86,0.00,,,0.00,VWS V14.01,2013-06-14 11:51:00,
2013-06-14 06:56:00,72.3,67.5,30.05,SE,141,3.0,3.0,85,0.00,,,0.00,VWS V14.01,2013-06-14 11:56:00,
2013-06-14 07:00:00,70.3,66.6,30.04,SSE,152,0.0,4.0,88,0.00,,,0.00,VWS V15.00,2013-06-14 12:00:00,
2013-06-14 07:01:00,72.8,67.7,30.05,SSE,163,3.0,3.0,84,0.00,,,0.00,VWS V14.01,2013-06-14 12:01:00,
2013-06-14 07:06:00,73.1,67.6,30.06,South,181,0.0,3.0,83,0.00,,,0.00,VWS V14.01,2013-06-14 12:06:00,
2013-06-14 07:11:00,73.4,67.9,30.06,ENE,70,0.0,3.0,83,0.00,,,0.00,VWS V14.01,2013-06-14 12:11:00,
2013-06-14 07:16:00,73.8,68.0,30.06,East,97,3.0,3.0,82,0.00,,,0.00,VWS V14.01,2013-06-14 12:16:00,
2013-06-14 07:21:00,74.0,68.2,30.06,SSW,200,0.0,3.0,82,0.00,,,0.00,VWS V14.01,2013-06-14 12:21:00,
2013-06-14 07:26:00,74.6,68.4,30.06,East,95,0.0,3.0,81,0.00,,,0.00,VWS V14.01,2013-06-14 12:26:00,
2013-06-14 07:31:00,74.9,68.7,30.06,SSE,151,0.0,5.0,81,0.00,,,0.00,VWS V14.01,2013-06-14 12:31:00,
2013-06-14 07:36:00,75.3,68.7,30.06,SSW,201,3.0,5.0,80,0.00,,,0.00,VWS V14.01,2013-06-14 12:36:00,
2013-06-14 07:41:00,75.3,68.3,30.06,SSE,166,4.5,5.0,79,0.00,,,0.00,VWS V14.01,2013-06-14 12:41:00,
2013-06-14 07:46:00,75.3,68.7,30.06,SE,131,0.0,5.0,80,0.00,,,0.00,VWS V14.01,2013-06-14 12:46:00,
2013-06-14 07:51:00,75.1,68.5,30.06,South,180,3.0,7.0,80,0.00,,,0.00,VWS V14.01,2013-06-14 12:51:00,
2013-06-14 07:56:00,75.1,68.5,30.06,South,184,4.5,7.0,80,0.00,,,0.00,VWS V14.01,2013-06-14 12:56:00,
2013-06-14 08:00:00,75.3,68.3,30.06,SSE,162,3.0,7.0,79,0.00,,,0.00,VWS V14.01,2013-06-14 13:00:00,
2013-06-14 08:01:00,75.3,68.7,30.06,SSW,193,1.5,2.0,80,0.00,,,0.00,VWS V14.01,2013-06-14 13:01:00,
2013-06-14 08:06:00,75.8,68.5,30.06,SW,221,3.0,7.0,78,0.00,,,0.00,VWS V14.01,2013-06-14 13:06:00,
2013-06-14 08:11:00,76.2,68.8,30.06,SSE,160,6.0,7.0,78,0.00,,,0.00,VWS V14.01,2013-06-14 13:11:00,
2013-06-14 08:16:00,76.5,68.8,30.06,South,174,10.5,10.5,77,0.00,,,0.00,VWS V14.01,2013-06-14 13:16:00,
2013-06-14 08:21:00,76.8,68.7,30.07,South,169,3.0,8.0,76,0.00,,,0.00,VWS V14.01,2013-06-14 13:21:00,
2013-06-14 08:26:00,76.9,68.4,30.07,SSW,211,1.5,8.0,75,0.00,,,0.00,VWS V14.01,2013-06-14 13:26:00,
2013-06-14 08:31:00,77.0,68.5,30.07,South,176,9.0,9.0,75,0.00,,,0.00,VWS V14.01,2013-06-14 13:31:00,
2013-06-14 08:36:00,77.3,68.8,30.07,South,174,4.5,8.0,75,0.00,,,0.00,VWS V14.01,2013-06-14 13:36:00,
2013-06-14 08:41:00,77.6,68.7,30.07,SE,134,7.5,8.0,74,0.00,,,0.00,VWS V14.01,2013-06-14 13:41:00,
2013-06-14 08:46:00,77.8,68.9,30.07,East,94,4.5,9.0,74,0.00,,,0.00,VWS V14.01,2013-06-14 13:46:00,
2013-06-14 08:51:00,78.2,69.2,30.07,South,179,1.5,9.0,74,0.00,,,0.00,VWS V14.01,2013-06-14 13:51:00,
2013-06-14 08:56:00,78.5,69.5,30.07,SE,124,4.5,9.0,74,0.00,,,0.00,VWS V14.01,2013-06-14 13:56:00,
2013-06-14 09:00:00,75.3,68.3,30.06,SSE,162,3.0,7.0,79,0.00,,,0.00,VWS V15.00,2013-06-14 14:00:00,
2013-06-14 09:01:00,78.8,69.4,30.07,South,183,4.5,9.0,73,0.00,,,0.00,VWS V14.01,2013-06-14 14:01:00,
2013-06-14 09:06:00,79.3,70.3,30.07,South,190,4.5,9.0,74,0.00,,,0.00,VWS V14.01,2013-06-14 14:06:00,
2013-06-14 09:11:00,79.5,69.7,30.08,SE,139,7.5,9.0,72,0.00,,,0.00,VWS V14.01,2013-06-14 14:11:00,
2013-06-14 09:16:00,79.6,70.2,30.07,SE,146,6.0,9.0,73,0.00,,,0.00,VWS V14.01,2013-06-14 14:16:00,
2013-06-14 09:21:00,79.9,70.1,30.07,East,94,3.0,9.0,72,0.00,,,0.00,VWS V14.01,2013-06-14 14:21:00,
2013-06-14 09:26:00,80.1,70.3,30.08,SSE,148,3.0,9.0,72,0.00,,,0.00,VWS V14.01,2013-06-14 14:26:00,
2013-06-14 09:31:00,80.5,70.7,30.07,South,172,1.5,9.0,72,0.00,,,0.00,VWS V14.01,2013-06-14 14:31:00,
2013-06-14 09:36:00,81.3,71.4,30.07,South,188,1.5,9.0,72,0.00,,,0.00,VWS V14.01,2013-06-14 14:36:00,
2013-06-14 09:41:00,82.1,70.9,30.07,SSW,200,0.0,9.0,69,0.00,,,0.00,VWS V14.01,2013-06-14 14:41:00,
2013-06-14 09:46:00,81.9,69.9,30.07,SSW,210,1.5,9.0,67,0.00,,,0.00,VWS V14.01,2013-06-14 14:46:00,
2013-06-14 09:51:00,81.9,70.3,30.07,SSE,149,1.5,9.0,68,0.00,,,0.00,VWS V14.01,2013-06-14 14:51:00,
2013-06-14 09:56:00,82.2,71.0,30.07,SSW,203,6.0,9.0,69,0.00,,,0.00,VWS V14.01,2013-06-14 14:56:00,
2013-06-14 10:00:00,82.4,70.8,30.07,East,91,4.5,9.0,68,0.00,,,0.00,VWS V14.01,2013-06-14 15:00:00,
2013-06-14 10:01:00,82.4,70.3,30.07,SE,143,1.5,4.0,67,0.00,,,0.00,VWS V14.01,2013-06-14 15:01:00,
2013-06-14 10:06:00,82.7,71.5,30.07,SSE,163,0.0,4.0,69,0.00,,,0.00,VWS V14.01,2013-06-14 15:06:00,
2013-06-14 10:11:00,83.0,71.4,30.07,SSE,165,3.0,5.0,68,0.00,,,0.00,VWS V14.01,2013-06-14 15:11:00,
2013-06-14 10:16:00,83.3,71.6,30.07,SE,132,1.5,5.0,68,0.00,,,0.00,VWS V14.01,2013-06-14 15:16:00,
2013-06-14 10:21:00,83.3,71.6,30.07,SSE,150,1.5,5.0,68,0.00,,,0.00,VWS V14.01,2013-06-14 15:21:00,
2013-06-14 10:26:00,83.9,72.2,30.07,SSW,193,3.0,5.0,68,0.00,,,0.00,VWS V14.01,2013-06-14 15:26:00,
2013-06-14 10:31:00,84.2,71.6,30.07,SSE,168,3.0,5.0,66,0.00,,,0.00,VWS V14.01,2013-06-14 15:31:00,
2013-06-14 10:36:00,84.1,72.0,30.07,SSW,202,6.0,7.0,67,0.00,,,0.00,VWS V14.01,2013-06-14 15:36:00,
2013-06-14 10:41:00,84.3,72.2,30.07,SSW,203,4.5,7.0,67,0.00,,,0.00,VWS V14.01,2013-06-14 15:41:00,
2013-06-14 10:46:00,84.7,72.5,30.07,ESE,106,3.0,7.0,67,0.00,,,0.00,VWS V14.01,2013-06-14 15:46:00,
2013-06-14 10:51:00,85.1,72.5,30.07,SSE,159,3.0,7.0,66,0.00,,,0.00,VWS V14.01,2013-06-14 15:51:00,
2013-06-14 10:56:00,85.4,72.3,30.07,SE,139,3.0,7.0,65,0.00,,,0.00,VWS V14.01,2013-06-14 15:56:00,
2013-06-14 11:00:00,82.4,70.8,30.07,East,91,4.5,9.0,68,0.00,,,0.00,VWS V15.00,2013-06-14 16:00:00,
2013-06-14 11:01:00,85.3,71.8,30.07,SSE,167,6.0,7.0,64,0.00,,,0.00,VWS V14.01,2013-06-14 16:01:00,
2013-06-14 11:06:00,84.9,72.3,30.07,SSW,193,1.5,9.0,66,0.00,,,0.00,VWS V14.01,2013-06-14 16:06:00,
2013-06-14 11:11:00,84.8,72.2,30.07,SSW,211,1.5,9.0,66,0.00,,,0.00,VWS V14.01,2013-06-14 16:11:00,
2013-06-14 11:16:00,84.9,71.8,30.07,SW,217,3.0,9.0,65,0.00,,,0.00,VWS V14.01,2013-06-14 16:16:00,
2013-06-14 11:21:00,85.2,71.7,30.07,SE,145,4.5,9.0,64,0.00,,,0.00,VWS V14.01,2013-06-14 16:21:00,
2013-06-14 11:26:00,85.1,72.0,30.07,SE,141,1.5,9.0,65,0.00,,,0.00,VWS V14.01,2013-06-14 16:26:00,
2013-06-14 11:31:00,85.3,71.8,30.07,South,177,0.0,9.0,64,0.00,,,0.00,VWS V14.01,2013-06-14 16:31:00,
2013-06-14 11:36:00,85.6,72.0,30.07,SSW,200,1.5,9.0,64,0.00,,,0.00,VWS V14.01,2013-06-14 16:36:00,
2013-06-14 11:41:00,85.3,72.7,30.07,South,169,0.0,9.0,66,0.00,,,0.00,VWS V14.01,2013-06-14 16:41:00,
2013-06-14 11:46:00,85.4,72.3,30.07,SSE,153,1.5,9.0,65,0.00,,,0.00,VWS V14.01,2013-06-14 16:46:00,
2013-06-14 11:51:00,86.2,73.1,30.07,SSW,202,4.5,9.0,65,0.00,,,0.00,VWS V14.01,2013-06-14 16:51:00,
2013-06-14 11:56:00,85.9,72.8,30.07,SSW,195,3.0,9.0,65,0.00,,,0.00,VWS V14.01,2013-06-14 16:56:00,
2013-06-14 12:00:00,85.6,72.0,30.06,SSE,155,3.0,9.0,64,0.00,,,0.00,VWS V14.01,2013-06-14 17:00:00,
2013-06-14 12:01:00,85.5,72.4,30.06,SSW,207,1.5,2.0,65,0.00,,,0.00,VWS V14.01,2013-06-14 17:01:00,
2013-06-14 12:06:00,85.2,72.1,30.06,SSE,160,0.0,2.0,65,0.00,,,0.00,VWS V14.01,2013-06-14 17:06:00,
2013-06-14 12:11:00,85.3,72.2,30.06,SSW,203,3.0,4.0,65,0.00,,,0.00,VWS V14.01,2013-06-14 17:11:00,
2013-06-14 12:16:00,86.1,73.4,30.06,SSE,168,1.5,4.0,66,0.00,,,0.00,VWS V14.01,2013-06-14 17:16:00,
2013-06-14 12:21:00,86.7,73.1,30.05,SE,127,1.5,5.0,64,0.00,,,0.00,VWS V14.01,2013-06-14 17:21:00,
2013-06-14 12:26:00,86.7,72.6,30.05,South,180,3.0,9.0,63,0.00,,,0.00,VWS V14.01,2013-06-14 17:26:00,
2013-06-14 12:31:00,86.8,74.1,30.05,WSW,248,1.5,9.0,66,0.00,,,0.00,VWS V14.01,2013-06-14 17:31:00,
2013-06-14 12:36:00,86.9,73.7,30.05,ESE,120,3.0,10.0,65,0.00,,,0.00,VWS V14.01,2013-06-14 17:36:00,
2013-06-14 12:41:00,87.1,73.9,30.05,SSW,201,4.5,10.0,65,0.00,,,0.00,VWS V14.01,2013-06-14 17:41:00,
2013-06-14 12:46:00,87.4,72.8,30.05,SSE,165,7.5,10.0,62,0.00,,,0.00,VWS V14.01,2013-06-14 17:46:00,
2013-06-14 12:51:00,87.9,73.7,30.05,SSE,165,4.5,10.0,63,0.00,,,0.00,VWS V14.01,2013-06-14 17:51:00,
2013-06-14 12:56:00,88.0,73.8,30.05,SE,141,0.0,10.0,63,0.00,,,0.00,VWS V14.01,2013-06-14 17:56:00,
2013-06-14 13:00:00,85.6,72.0,30.06,SSE,155,3.0,9.0,64,0.00,,,0.00,VWS V15.00,2013-06-14 18:00:00,
2013-06-14 13:01:00,87.9,73.7,30.05,SE,130,6.0,10.0,63,0.00,,,0.00,VWS V14.01,2013-06-14 18:01:00,
2013-06-14 13:06:00,88.2,74.0,30.05,SSW,205,0.0,10.0,63,0.00,,,0.00,VWS V14.01,2013-06-14 18:06:00,
2013-06-14 13:11:00,88.3,73.6,30.04,SW,217,1.5,10.0,62,0.00,,,0.00,VWS V14.01,2013-06-14 18:11:00,
2013-06-14 13:16:00,88.3,73.6,30.04,SSW,205,0.0,10.0,62,0.00,,,0.00,VWS V14.01,2013-06-14 18:16:00,
2013-06-14 13:21:00,88.3,73.6,30.04,SSE,163,4.5,10.0,62,0.00,,,0.00,VWS V14.01,2013-06-14 18:21:00,
2013-06-14 13:26:00,88.4,73.7,30.04,SSW,208,1.5,10.0,62,0.00,,,0.00,VWS V14.01,2013-06-14 18:26:00,
2013-06-14 13:31:00,88.6,74.4,30.04,SSE,163,0.0,10.0,63,0.00,,,0.00,VWS V14.01,2013-06-14 18:31:00,
2013-06-14 13:36:00,89.2,75.0,30.04,South,190,3.0,10.0,63,0.00,,,0.00,VWS V14.01,2013-06-14 18:36:00,
2013-06-14 13:41:00,89.4,74.7,30.04,South,173,0.0,10.0,62,0.00,,,0.00,VWS V14.01,2013-06-14 18:41:00,
2013-06-14 13:46:00,89.6,74.9,30.04,SSE,155,3.0,10.0,62,0.00,,,0.00,VWS V14.01,2013-06-14 18:46:00,
2013-06-14 13:51:00,89.7,74.5,30.04,South,173,0.0,10.0,61,0.00,,,0.00,VWS V14.01,2013-06-14 18:51:00,
2013-06-14 13:56:00,89.9,74.7,30.04,SE,142,3.0,10.0,61,0.00,,,0.00,VWS V14.01,2013-06-14 18:56:00,
2013-06-14 14:00:00,89.9,75.1,30.04,SW,216,0.0,10.0,62,0.00,,,0.00,VWS V14.01,2013-06-14 19:00:00,
2013-06-14 14:01:00,89.9,74.2,30.03,South,174,1.5,2.0,60,0.00,,,0.00,VWS V14.01,2013-06-14 19:01:00,
2013-06-14 14:06:00,90.6,75.8,30.03,SSW,198,3.0,3.0,62,0.00,,,0.00,VWS V14.01,2013-06-14 19:06:00,
2013-06-14 14:11:00,90.8,75.5,30.03,SSW,200,3.0,4.0,61,0.00,,,0.00,VWS V14.01,2013-06-14 19:11:00,
2013-06-14 14:16:00,90.4,75.1,30.03,SW,215,0.0,6.0,61,0.00,,,0.00,VWS V14.01,2013-06-14 19:16:00,
2013-06-14 14:21:00,90.4,75.6,30.03,South,184,0.0,6.0,62,0.00,,,0.00,VWS V14.01,2013-06-14 19:21:00,
2013-06-14 14:26:00,91.0,75.7,30.03,ESE,118,0.0,6.0,61,0.00,,,0.00,VWS V14.01,2013-06-14 19:26:00,
2013-06-14 14:31:00,91.2,75.4,30.03,SSW,203,0.0,6.0,60,0.00,,,0.00,VWS V14.01,2013-06-14 19:31:00,
2013-06-14 14:36:00,90.9,75.1,30.03,ENE,58,0.0,6.0,60,0.00,,,0.00,VWS V14.01,2013-06-14 19:36:00,
2013-06-14 14:41:00,90.9,75.1,30.03,NNE,33,1.5,6.0,60,0.00,,,0.00,VWS V14.01,2013-06-14 19:41:00,
2013-06-14 14:46:00,90.3,75.5,30.03,NNW,345,3.0,6.0,62,0.00,,,0.00,VWS V14.01,2013-06-14 19:46:00,
2013-06-14 14:57:00,91.1,76.3,30.02,NW,326,0.0,0.0,62,0.00,,,0.00,VWS V14.01,2013-06-14 19:57:00,
2013-06-14 15:00:00,89.9,75.1,30.04,SW,216,0.0,10.0,62,0.00,,,0.00,VWS V15.00,2013-06-14 20:00:00,
2013-06-14 15:02:00,91.8,73.9,30.02,East,96,3.0,5.0,56,0.00,,,0.00,VWS V14.01,2013-06-14 20:02:00,
2013-06-14 15:07:00,91.5,75.2,30.02,ENE,72,3.0,5.0,59,0.00,,,0.00,VWS V14.01,2013-06-14 20:07:00,
2013-06-14 15:12:00,90.9,75.1,30.02,SW,226,0.0,5.0,60,0.00,,,0.00,VWS V14.01,2013-06-14 20:12:00,
2013-06-14 15:17:00,90.2,74.9,30.02,SW,226,0.0,5.0,61,0.00,,,0.00,VWS V14.01,2013-06-14 20:17:00,
2013-06-14 15:22:00,90.0,75.7,30.02,SSW,210,1.5,5.0,63,0.00,,,0.00,VWS V14.01,2013-06-14 20:22:00,
2013-06-14 15:27:00,90.5,75.2,30.01,SSW,210,1.5,5.0,61,0.00,,,0.00,VWS V14.01,2013-06-14 20:27:00,
2013-06-14 15:32:00,90.9,75.1,30.01,SSW,195,0.0,5.0,60,0.00,,,0.00,VWS V14.01,2013-06-14 20:32:00,
2013-06-14 15:37:00,91.0,75.2,30.01,South,189,1.5,5.0,60,0.00,,,0.00,VWS V14.01,2013-06-14 20:37:00,
2013-06-14 15:42:00,90.7,75.4,30.01,South,172,3.0,5.0,61,0.00,,,0.00,VWS V14.01,2013-06-14 20:42:00,
2013-06-14 15:47:00,90.7,75.4,30.01,SW,219,0.0,5.0,61,0.00,,,0.00,VWS V14.01,2013-06-14 20:47:00,
2013-06-14 15:52:00,91.1,75.8,30.01,South,176,0.0,5.0,61,0.00,,,0.00,VWS V14.01,2013-06-14 20:52:00,
2013-06-14 15:57:00,90.8,74.0,30.01,SE,127,0.0,5.0,58,0.00,,,0.00,VWS V14.01,2013-06-14 20:57:00,
2013-06-14 16:00:00,91.0,74.2,30.00,South,173,0.0,5.0,58,0.00,,,0.00,VWS V14.01,2013-06-14 21:00:00,
2013-06-14 16:02:00,91.0,73.7,30.00,East,79,3.0,3.0,57,0.00,,,0.00,VWS V14.01,2013-06-14 21:02:00,
2013-06-14 16:07:00,89.9,74.7,30.00,NE,36,1.5,4.0,61,0.00,,,0.00,VWS V14.01,2013-06-14 21:07:00,
2013-06-14 16:12:00,89.7,74.5,30.00,NNE,30,0.0,4.0,61,0.00,,,0.00,VWS V14.01,2013-06-14 21:12:00,
2013-06-14 16:17:00,90.2,74.9,30.00,SSE,156,0.0,4.0,61,0.00,,,0.00,VWS V14.01,2013-06-14 21:17:00,
2013-06-14 16:22:00,90.6,74.8,30.00,South,188,4.5,4.5,60,0.00,,,0.00,VWS V14.01,2013-06-14 21:22:00,
2013-06-14 16:27:00,90.5,75.2,30.00,SSW,198,0.0,4.0,61,0.00,,,0.00,VWS V14.01,2013-06-14 21:27:00,
2013-06-14 16:32:00,90.7,73.9,30.00,SSW,200,1.5,4.0,58,0.00,,,0.00,VWS V14.01,2013-06-14 21:32:00,
2013-06-14 16:37:00,90.6,74.8,30.00,SSW,201,0.0,4.0,60,0.00,,,0.00,VWS V14.01,2013-06-14 21:37:00,
2013-06-14 16:42:00,91.0,75.2,29.99,SSE,150,0.0,4.0,60,0.00,,,0.00,VWS V14.01,2013-06-14 21:42:00,
2013-06-14 16:47:00,91.5,73.1,29.99,SSE,152,0.0,4.0,55,0.00,,,0.00,VWS V14.01,2013-06-14 21:47:00,
2013-06-14 16:52:00,92.0,75.1,29.99,SSE,162,3.0,4.0,58,0.00,,,0.00,VWS V14.01,2013-06-14 21:52:00,
2013-06-14 16:57:00,92.1,75.2,29.99,NNW,336,0.0,4.0,58,0.00,,,0.00,VWS V14.01,2013-06-14 21:57:00,
2013-06-14 17:00:00,91.0,74.2,30.00,South,173,0.0,5.0,58,0.00,,,0.00,VWS V15.00,2013-06-14 22:00:00,
2013-06-14 17:02:00,92.2,75.3,29.99,SSW,194,1.5,4.0,58,0.00,,,0.00,VWS V14.01,2013-06-14 22:02:00,
2013-06-14 17:07:00,92.1,75.2,29.99,SSW,198,0.0,4.0,58,0.00,,,0.00,VWS V14.01,2013-06-14 22:07:00,
2013-06-14 17:12:00,92.1,75.7,29.99,SSE,166,0.0,5.0,59,0.00,,,0.00,VWS V14.01,2013-06-14 22:12:00,
2013-06-14 17:17:00,92.5,76.1,29.99,SSW,212,0.0,5.0,59,0.00,,,0.00,VWS V14.01,2013-06-14 22:17:00,
2013-06-14 17:22:00,92.3,76.4,29.99,East,96,0.0,5.0,60,0.00,,,0.00,VWS V14.01,2013-06-14 22:22:00,
2013-06-14 17:27:00,92.5,76.1,29.99,South,181,0.0,5.0,59,0.00,,,0.00,VWS V14.01,2013-06-14 22:27:00,
2013-06-14 17:32:00,91.9,75.0,29.99,South,191,1.5,5.0,58,0.00,,,0.00,VWS V14.01,2013-06-14 22:32:00,
2013-06-14 17:37:00,90.6,74.3,29.99,SSE,167,1.5,5.0,59,0.00,,,0.00,VWS V14.01,2013-06-14 22:37:00,
2013-06-14 17:42:00,90.0,75.2,29.99,SSE,166,3.0,5.0,62,0.00,,,0.00,VWS V14.01,2013-06-14 22:42:00,
2013-06-14 17:47:00,89.8,75.1,29.98,SE,127,1.5,5.0,62,0.00,,,0.00,VWS V14.01,2013-06-14 22:47:00,
2013-06-14 17:52:00,90.0,75.7,29.98,SSE,157,4.5,5.0,63,0.00,,,0.00,VWS V14.01,2013-06-14 22:52:00,
2013-06-14 17:57:00,90.2,74.4,29.98,SSE,162,6.0,6.0,60,0.00,,,0.00,VWS V14.01,2013-06-14 22:57:00,
2013-06-14 18:00:00,90.2,75.4,29.98,SW,226,0.0,5.0,62,0.00,,,0.00,VWS V14.01,2013-06-14 23:00:00,
2013-06-14 18:02:00,90.2,74.9,29.98,South,184,6.0,6.0,61,0.00,,,0.00,VWS V14.01,2013-06-14 23:02:00,
2013-06-14 18:07:00,90.0,74.8,29.98,SSW,198,1.5,5.0,61,0.00,,,0.00,VWS V14.01,2013-06-14 23:07:00,
2013-06-14 18:12:00,89.8,74.6,29.98,ESE,108,4.5,5.0,61,0.00,,,0.00,VWS V14.01,2013-06-14 23:12:00,
2013-06-14 18:17:00,90.0,74.8,29.98,SE,145,1.5,5.0,61,0.00,,,0.00,VWS V14.01,2013-06-14 23:17:00,
2013-06-14 18:22:00,89.8,74.6,29.98,SW,222,4.5,5.0,61,0.00,,,0.00,VWS V14.01,2013-06-14 23:22:00,
2013-06-14 18:27:00,89.4,74.2,29.98,SSE,157,0.0,6.0,61,0.00,,,0.00,VWS V14.01,2013-06-14 23:27:00,
2013-06-14 18:32:00,89.3,75.1,29.98,SSE,162,0.0,6.0,63,0.00,,,0.00,VWS V14.01,2013-06-14 23:32:00,
2013-06-14 18:37:00,89.4,74.7,29.97,South,185,3.0,6.0,62,0.00,,,0.00,VWS V14.01,2013-06-14 23:37:00,
2013-06-14 18:42:00,89.3,74.6,29.98,SSW,197,0.0,6.0,62,0.00,,,0.00,VWS V14.01,2013-06-14 23:42:00,
2013-06-14 18:47:00,88.6,73.9,29.98,SSE,160,1.5,6.0,62,0.00,,,0.00,VWS V14.01,2013-06-14 23:47:00,
2013-06-14 18:52:00,88.3,74.1,29.98,SW,231,1.5,6.0,63,0.00,,,0.00,VWS V14.01,2013-06-14 23:52:00,
2013-06-14 18:57:00,88.3,75.1,29.98,SW,236,0.0,6.0,65,0.00,,,0.00,VWS V14.01,2013-06-14 23:57:00,
2013-06-14 19:00:00,90.2,75.4,29.98,SW,226,0.0,5.0,62,0.00,,,0.00,VWS V15.00,2013-06-15 00:00:00,
2013-06-14 19:02:00,88.2,75.0,29.98,SSW,210,1.5,7.0,65,0.00,,,0.00,VWS V14.01,2013-06-15 00:02:00,
2013-06-14 19:07:00,88.2,75.0,29.98,WSW,237,3.0,7.0,65,0.00,,,0.00,VWS V14.01,2013-06-15 00:07:00,
2013-06-14 19:12:00,88.0,74.8,29.98,SSW,194,4.5,7.0,65,0.00,,,0.00,VWS V14.01,2013-06-15 00:12:00,
2013-06-14 19:17:00,87.6,74.8,29.98,SW,221,0.0,7.0,66,0.00,,,0.00,VWS V14.01,2013-06-15 00:17:00,
2013-06-14 19:22:00,87.3,74.6,29.98,SSW,210,0.0,7.0,66,0.00,,,0.00,VWS V14.01,2013-06-15 00:22:00,
2013-06-14 19:27:00,87.0,74.7,29.98,SW,215,1.5,7.0,67,0.00,,,0.00,VWS V14.01,2013-06-15 00:27:00,
2013-06-14 19:32:00,86.8,75.0,29.98,South,187,6.0,7.0,68,0.00,,,0.00,VWS V14.01,2013-06-15 00:32:00,
2013-06-14 19:37:00,86.7,74.9,29.98,South,188,1.5,7.0,68,0.00,,,0.00,VWS V14.01,2013-06-15 00:37:00,
2013-06-14 19:42:00,86.5,75.1,29.98,SSW,208,1.5,7.0,69,0.00,,,0.00,VWS V14.01,2013-06-15 00:42:00,
2013-06-14 19:47:00,86.3,74.9,29.98,South,187,1.5,7.0,69,0.00,,,0.00,VWS V14.01,2013-06-15 00:47:00,
2013-06-14 19:52:00,86.0,74.7,29.98,SSW,203,3.0,7.0,69,0.00,,,0.00,VWS V14.01,2013-06-15 00:52:00,
2013-06-14 19:57:00,85.7,74.4,29.98,SW,214,0.0,7.0,69,0.00,,,0.00,VWS V14.01,2013-06-15 00:57:00,
2013-06-14 20:00:00,85.5,74.6,29.98,SSE,153,3.0,7.0,70,0.00,,,0.00,VWS V14.01,2013-06-15 01:00:00,
2013-06-14 20:02:00,85.4,74.5,29.98,SSW,203,1.5,5.0,70,0.00,,,0.00,VWS V14.01,2013-06-15 01:02:00,
2013-06-14 20:07:00,85.1,74.2,29.98,South,169,1.5,7.0,70,0.00,,,0.00,VWS V14.01,2013-06-15 01:07:00,
2013-06-14 20:12:00,84.9,74.4,29.99,South,183,0.0,7.0,71,0.00,,,0.00,VWS V14.01,2013-06-15 01:12:00,
2013-06-14 20:17:00,84.6,74.6,29.99,SSW,207,1.5,7.0,72,0.00,,,0.00,VWS V14.01,2013-06-15 01:17:00,
2013-06-14 20:21:00,84.4,74.4,29.99,SSW,200,1.5,7.0,72,0.00,,,0.00,VWS V14.01,2013-06-15 01:21:00,
2013-06-14 20:26:00,84.1,74.5,29.99,SSE,156,0.0,7.0,73,0.00,,,0.00,VWS V14.01,2013-06-15 01:26:00,
2013-06-14 20:31:00,83.9,74.3,29.99,SSW,203,1.5,7.0,73,0.00,,,0.00,VWS V14.01,2013-06-15 01:31:00,
2013-06-14 20:36:00,83.6,74.0,29.99,SSE,162,1.5,7.0,73,0.00,,,0.00,VWS V14.01,2013-06-15 01:36:00,
2013-06-14 20:41:00,83.3,74.2,29.99,South,170,4.5,7.0,74,0.00,,,0.00,VWS V14.01,2013-06-15 01:41:00,
2013-06-14 20:46:00,83.0,73.9,29.99,SSW,210,0.0,7.0,74,0.00,,,0.00,VWS V14.01,2013-06-15 01:46:00,
2013-06-14 20:51:00,82.7,74.0,29.99,SSW,203,1.5,7.0,75,0.00,,,0.00,VWS V14.01,2013-06-15 01:51:00,
2013-06-14 20:56:00,82.4,74.1,29.99,South,184,1.5,7.0,76,0.00,,,0.00,VWS V14.01,2013-06-15 01:56:00,
2013-06-14 21:00:00,85.5,74.6,29.98,SSE,153,3.0,7.0,70,0.00,,,0.00,VWS V15.00,2013-06-15 02:00:00,
2013-06-14 21:01:00,82.2,73.9,29.99,SSE,162,0.0,7.0,76,0.00,,,0.00,VWS V14.01,2013-06-15 02:01:00,
2013-06-14 21:06:00,82.1,73.8,29.99,SSE,160,1.5,7.0,76,0.00,,,0.00,VWS V14.01,2013-06-15 02:06:00,
2013-06-14 21:11:00,82.1,73.8,30.00,South,169,3.0,7.0,76,0.00,,,0.00,VWS V14.01,2013-06-15 02:11:00,
2013-06-14 21:16:00,82.1,73.8,30.00,SSE,159,1.5,7.0,76,0.00,,,0.00,VWS V14.01,2013-06-15 02:16:00,
2013-06-14 21:21:00,82.1,73.8,30.00,South,169,4.5,7.0,76,0.00,,,0.00,VWS V14.01,2013-06-15 02:21:00,
2013-06-14 21:26:00,82.2,73.9,30.00,SSE,155,0.0,7.0,76,0.00,,,0.00,VWS V14.01,2013-06-15 02:26:00,
2013-06-14 21:31:00,82.1,73.8,30.00,South,189,1.5,7.0,76,0.00,,,0.00,VWS V14.01,2013-06-15 02:31:00,
2013-06-14 21:36:00,81.9,73.6,30.01,SSE,155,4.5,7.0,76,0.00,,,0.00,VWS V14.01,2013-06-15 02:36:00,
2013-06-14 21:41:00,81.9,73.6,30.01,SSE,163,0.0,7.0,76,0.00,,,0.00,VWS V14.01,2013-06-15 02:41:00,
2013-06-14 21:46:00,81.8,73.9,30.01,SE,145,0.0,7.0,77,0.00,,,0.00,VWS V14.01,2013-06-15 02:46:00,
2013-06-14 21:51:00,81.6,73.7,30.01,SSW,193,3.0,7.0,77,0.00,,,0.00,VWS V14.01,2013-06-15 02:51:00,
2013-06-14 21:56:00,81.5,73.6,30.01,SSE,166,3.0,7.0,77,0.00,,,0.00,VWS V14.01,2013-06-15 02:56:00,
2013-06-14 22:00:00,81.4,73.5,30.01,SSE,160,1.5,7.0,77,0.00,,,0.00,VWS V14.01,2013-06-15 03:00:00,
2013-06-14 22:01:00,81.3,73.4,30.01,SE,146,4.5,4.5,77,0.00,,,0.00,VWS V14.01,2013-06-15 03:01:00,
2013-06-14 22:06:00,81.1,73.2,30.01,SE,141,0.0,6.0,77,0.00,,,0.00,VWS V14.01,2013-06-15 03:06:00,
2013-06-14 22:11:00,80.9,73.0,30.02,ESE,117,0.0,6.0,77,0.00,,,0.00,VWS V14.01,2013-06-15 03:11:00,
2013-06-14 22:16:00,80.7,72.8,30.02,SE,143,4.5,6.0,77,0.00,,,0.00,VWS V14.01,2013-06-15 03:16:00,
2013-06-14 22:21:00,80.6,72.7,30.02,SSE,159,1.5,6.0,77,0.00,,,0.00,VWS V14.01,2013-06-15 03:21:00,
2013-06-14 22:26:00,80.4,72.5,30.02,South,177,1.5,6.0,77,0.00,,,0.00,VWS V14.01,2013-06-15 03:26:00,
2013-06-14 22:31:00,80.3,72.4,30.02,SE,146,1.5,6.0,77,0.00,,,0.00,VWS V14.01,2013-06-15 03:31:00,
2013-06-14 22:36:00,80.1,72.2,30.02,South,170,1.5,6.0,77,0.00,,,0.00,VWS V14.01,2013-06-15 03:36:00,
2013-06-14 22:41:00,80.0,72.5,30.03,South,174,0.0,6.0,78,0.00,,,0.00,VWS V14.01,2013-06-15 03:41:00,
2013-06-14 22:46:00,79.8,72.3,30.03,SSW,195,0.0,6.0,78,0.00,,,0.00,VWS V14.01,2013-06-15 03:46:00,
2013-06-14 22:51:00,79.6,72.1,30.03,South,177,3.0,6.0,78,0.00,,,0.00,VWS V14.01,2013-06-15 03:51:00,
2013-06-14 22:56:00,79.5,72.0,30.03,South,172,4.5,6.0,78,0.00,,,0.00,VWS V14.01,2013-06-15 03:56:00,
2013-06-14 23:00:00,81.4,73.5,30.01,SSE,160,1.5,7.0,77,0.00,,,0.00,VWS V15.00,2013-06-15 04:00:00,
2013-06-14 23:01:00,79.3,71.8,30.03,South,173,9.0,9.0,78,0.00,,,0.00,VWS V14.01,2013-06-15 04:01:00,
2013-06-14 23:06:00,79.2,71.8,30.03,SSW,198,7.5,9.0,78,0.00,,,0.00,VWS V14.01,2013-06-15 04:06:00,
2013-06-14 23:11:00,79.1,71.3,30.03,South,191,4.5,9.0,77,0.00,,,0.00,VWS V14.01,2013-06-15 04:11:00,
2013-06-14 23:16:00,78.9,71.1,30.03,South,170,6.0,9.0,77,0.00,,,0.00,VWS V14.01,2013-06-15 04:16:00,
2013-06-14 23:21:00,78.8,71.0,30.03,SSE,160,1.5,9.0,77,0.00,,,0.00,VWS V14.01,2013-06-15 04:21:00,
2013-06-14 23:26:00,78.6,71.2,30.03,SSE,160,6.0,9.0,78,0.00,,,0.00,VWS V14.01,2013-06-15 04:26:00,
2013-06-14 23:31:00,78.5,71.1,30.03,SSE,152,1.5,9.0,78,0.00,,,0.00,VWS V14.01,2013-06-15 04:31:00,
2013-06-14 23:36:00,78.3,70.9,30.03,SE,143,1.5,9.0,78,0.00,,,0.00,VWS V14.01,2013-06-15 04:36:00,
2013-06-14 23:41:00,78.1,71.1,30.04,SSW,193,0.0,9.0,79,0.00,,,0.00,VWS V14.01,2013-06-15 04:41:00,
2013-06-14 23:46:00,78.0,71.0,30.04,SSE,160,3.0,9.0,79,0.00,,,0.00,VWS V14.01,2013-06-15 04:46:00,
2013-06-14 23:51:00,77.9,70.9,30.04,South,183,1.5,9.0,79,0.00,,,0.00,VWS V14.01,2013-06-15 04:51:00,
2013-06-14 23:56:00,77.8,70.8,30.04,SSE,167,0.0,9.0,79,0.00,,,0.00,VWS V14.01,2013-06-15 04:56:00,